sensor_id;sensor_type;location;lat;lon;timestamp;P1;durP1;ratioP1;P2;durP2;ratioP2
11504;SDS011;5809;53.262;10.408;2023-07-13T00:00:45;6.75;;;3.15;;
11504;SDS011;5809;53.262;10.408;2023-07-13T00:03:12;6.13;;;3.65;;
11504;SDS011;5809;53.262;10.408;2023-07-13T00:05:39;5.50;;;3.40;;
11504;SDS011;5809;53.262;10.408;2023-07-13T00:08:06;5.80;;;3.50;;
11504;SDS011;5809;53.262;10.408;2023-07-13T00:10:33;4.18;;;3.25;;
11504;SDS011;5809;53.262;10.408;2023-07-13T00:13:00;6.40;;;3.33;;
11504;SDS011;5809;53.262;10.408;2023-07-13T00:15:27;6.78;;;3.20;;
11504;SDS011;5809;53.262;10.408;2023-07-13T00:17:58;7.88;;;3.40;;
11504;SDS011;5809;53.262;10.408;2023-07-13T00:20:26;5.30;;;3.70;;
11504;SDS011;5809;53.262;10.408;2023-07-13T00:22:52;5.15;;;3.67;;
11504;SDS011;5809;53.262;10.408;2023-07-13T00:25:19;5.85;;;3.53;;
11504;SDS011;5809;53.262;10.408;2023-07-13T00:27:47;4.38;;;3.47;;
11504;SDS011;5809;53.262;10.408;2023-07-13T00:30:14;10.07;;;3.78;;
11504;SDS011;5809;53.262;10.408;2023-07-13T00:32:42;13.50;;;3.70;;
11504;SDS011;5809;53.262;10.408;2023-07-13T00:35:12;6.57;;;3.67;;
11504;SDS011;5809;53.262;10.408;2023-07-13T00:37:40;6.32;;;3.70;;
11504;SDS011;5809;53.262;10.408;2023-07-13T00:40:08;7.60;;;3.65;;
11504;SDS011;5809;53.262;10.408;2023-07-13T00:42:37;9.70;;;3.80;;
11504;SDS011;5809;53.262;10.408;2023-07-13T00:45:05;6.30;;;3.55;;
11504;SDS011;5809;53.262;10.408;2023-07-13T00:47:53;6.80;;;4.22;;
11504;SDS011;5809;53.262;10.408;2023-07-13T00:50:22;6.32;;;3.67;;
11504;SDS011;5809;53.262;10.408;2023-07-13T00:52:52;4.53;;;3.70;;
11504;SDS011;5809;53.262;10.408;2023-07-13T00:55:23;4.50;;;3.72;;
11504;SDS011;5809;53.262;10.408;2023-07-13T00:57:49;6.13;;;3.72;;
11504;SDS011;5809;53.262;10.408;2023-07-13T01:00:17;6.60;;;3.85;;
11504;SDS011;5809;53.262;10.408;2023-07-13T01:02:45;7.32;;;4.00;;
11504;SDS011;5809;53.262;10.408;2023-07-13T01:05:14;5.30;;;3.70;;
11504;SDS011;5809;53.262;10.408;2023-07-13T01:07:44;7.18;;;4.22;;
11504;SDS011;5809;53.262;10.408;2023-07-13T01:10:12;8.35;;;3.97;;
11504;SDS011;5809;53.262;10.408;2023-07-13T01:12:40;8.63;;;4.13;;
11504;SDS011;5809;53.262;10.408;2023-07-13T01:17:49;7.05;;;4.70;;
11504;SDS011;5809;53.262;10.408;2023-07-13T01:20:16;7.90;;;5.05;;
11504;SDS011;5809;53.262;10.408;2023-07-13T01:22:45;8.20;;;4.90;;
11504;SDS011;5809;53.262;10.408;2023-07-13T01:25:12;8.48;;;4.70;;
11504;SDS011;5809;53.262;10.408;2023-07-13T01:27:38;8.15;;;5.18;;
11504;SDS011;5809;53.262;10.408;2023-07-13T01:30:06;11.02;;;5.18;;
11504;SDS011;5809;53.262;10.408;2023-07-13T01:32:34;12.48;;;5.32;;
11504;SDS011;5809;53.262;10.408;2023-07-13T01:35:01;9.02;;;5.50;;
11504;SDS011;5809;53.262;10.408;2023-07-13T01:37:28;8.85;;;5.03;;
11504;SDS011;5809;53.262;10.408;2023-07-13T01:39:59;7.85;;;5.30;;
11504;SDS011;5809;53.262;10.408;2023-07-13T01:42:26;8.55;;;4.70;;
11504;SDS011;5809;53.262;10.408;2023-07-13T01:44:54;9.07;;;5.35;;
11504;SDS011;5809;53.262;10.408;2023-07-13T01:47:21;6.78;;;5.20;;
11504;SDS011;5809;53.262;10.408;2023-07-13T01:49:49;8.48;;;5.30;;
11504;SDS011;5809;53.262;10.408;2023-07-13T01:52:17;7.70;;;5.32;;
11504;SDS011;5809;53.262;10.408;2023-07-13T01:54:44;8.32;;;5.40;;
11504;SDS011;5809;53.262;10.408;2023-07-13T01:57:12;6.40;;;5.60;;
11504;SDS011;5809;53.262;10.408;2023-07-13T01:59:39;9.02;;;6.10;;
11504;SDS011;5809;53.262;10.408;2023-07-13T02:02:06;7.32;;;5.57;;
11504;SDS011;5809;53.262;10.408;2023-07-13T02:04:33;11.32;;;5.85;;
11504;SDS011;5809;53.262;10.408;2023-07-13T02:07:00;9.10;;;5.55;;
11504;SDS011;5809;53.262;10.408;2023-07-13T02:09:27;6.93;;;5.78;;
11504;SDS011;5809;53.262;10.408;2023-07-13T02:11:54;8.23;;;5.78;;
11504;SDS011;5809;53.262;10.408;2023-07-13T02:14:22;10.40;;;5.75;;
11504;SDS011;5809;53.262;10.408;2023-07-13T02:16:49;9.60;;;5.60;;
11504;SDS011;5809;53.262;10.408;2023-07-13T02:19:17;10.30;;;5.53;;
11504;SDS011;5809;53.262;10.408;2023-07-13T02:21:44;8.40;;;6.45;;
11504;SDS011;5809;53.262;10.408;2023-07-13T02:24:11;7.05;;;5.72;;
11504;SDS011;5809;53.262;10.408;2023-07-13T02:26:42;8.27;;;5.78;;
11504;SDS011;5809;53.262;10.408;2023-07-13T02:29:09;8.35;;;5.45;;
11504;SDS011;5809;53.262;10.408;2023-07-13T02:31:38;12.77;;;6.13;;
11504;SDS011;5809;53.262;10.408;2023-07-13T02:34:04;7.13;;;5.10;;
11504;SDS011;5809;53.262;10.408;2023-07-13T02:36:31;7.15;;;5.57;;
11504;SDS011;5809;53.262;10.408;2023-07-13T02:39:00;7.30;;;5.68;;
11504;SDS011;5809;53.262;10.408;2023-07-13T02:41:28;6.47;;;5.15;;
11504;SDS011;5809;53.262;10.408;2023-07-13T02:43:54;7.93;;;5.07;;
11504;SDS011;5809;53.262;10.408;2023-07-13T02:46:27;12.50;;;5.82;;
11504;SDS011;5809;53.262;10.408;2023-07-13T02:48:56;5.88;;;4.97;;
11504;SDS011;5809;53.262;10.408;2023-07-13T02:51:23;9.55;;;6.05;;
11504;SDS011;5809;53.262;10.408;2023-07-13T02:53:50;11.32;;;5.75;;
11504;SDS011;5809;53.262;10.408;2023-07-13T02:56:17;7.10;;;5.65;;
11504;SDS011;5809;53.262;10.408;2023-07-13T02:58:44;6.43;;;5.40;;
11504;SDS011;5809;53.262;10.408;2023-07-13T03:01:12;6.15;;;5.28;;
11504;SDS011;5809;53.262;10.408;2023-07-13T03:03:43;8.15;;;5.55;;
11504;SDS011;5809;53.262;10.408;2023-07-13T03:06:13;6.22;;;5.30;;
11504;SDS011;5809;53.262;10.408;2023-07-13T03:08:41;7.35;;;5.65;;
11504;SDS011;5809;53.262;10.408;2023-07-13T03:11:10;5.80;;;5.20;;
11504;SDS011;5809;53.262;10.408;2023-07-13T03:13:38;8.65;;;5.53;;
11504;SDS011;5809;53.262;10.408;2023-07-13T03:16:06;6.60;;;5.50;;
11504;SDS011;5809;53.262;10.408;2023-07-13T03:18:33;8.60;;;5.60;;
11504;SDS011;5809;53.262;10.408;2023-07-13T03:21:00;9.68;;;5.47;;
11504;SDS011;5809;53.262;10.408;2023-07-13T03:23:29;6.47;;;5.53;;
11504;SDS011;5809;53.262;10.408;2023-07-13T03:26:02;6.00;;;5.35;;
11504;SDS011;5809;53.262;10.408;2023-07-13T03:28:31;7.22;;;5.50;;
11504;SDS011;5809;53.262;10.408;2023-07-13T03:31:01;8.02;;;5.30;;
11504;SDS011;5809;53.262;10.408;2023-07-13T03:33:28;8.10;;;5.50;;
11504;SDS011;5809;53.262;10.408;2023-07-13T03:35:56;10.60;;;5.50;;
11504;SDS011;5809;53.262;10.408;2023-07-13T03:38:22;7.13;;;5.43;;
11504;SDS011;5809;53.262;10.408;2023-07-13T03:40:51;8.77;;;5.38;;
11504;SDS011;5809;53.262;10.408;2023-07-13T03:43:18;6.35;;;5.28;;
11504;SDS011;5809;53.262;10.408;2023-07-13T03:45:45;6.28;;;5.30;;
11504;SDS011;5809;53.262;10.408;2023-07-13T03:48:13;8.35;;;5.47;;
11504;SDS011;5809;53.262;10.408;2023-07-13T03:50:40;8.45;;;5.13;;
11504;SDS011;5809;53.262;10.408;2023-07-13T03:53:07;7.25;;;5.63;;
11504;SDS011;5809;53.262;10.408;2023-07-13T03:55:34;9.88;;;5.57;;
11504;SDS011;5809;53.262;10.408;2023-07-13T04:00:45;8.82;;;5.68;;
11504;SDS011;5809;53.262;10.408;2023-07-13T04:03:12;7.20;;;4.95;;
11504;SDS011;5809;53.262;10.408;2023-07-13T04:05:39;8.90;;;5.15;;
11504;SDS011;5809;53.262;10.408;2023-07-13T04:08:06;8.55;;;4.90;;
11504;SDS011;5809;53.262;10.408;2023-07-13T04:10:33;6.03;;;4.63;;
11504;SDS011;5809;53.262;10.408;2023-07-13T04:13:00;9.98;;;5.70;;
11504;SDS011;5809;53.262;10.408;2023-07-13T04:15:28;8.77;;;5.28;;
11504;SDS011;5809;53.262;10.408;2023-07-13T04:17:57;6.80;;;4.70;;
11504;SDS011;5809;53.262;10.408;2023-07-13T04:20:24;6.95;;;4.97;;
11504;SDS011;5809;53.262;10.408;2023-07-13T04:22:51;5.78;;;4.28;;
11504;SDS011;5809;53.262;10.408;2023-07-13T04:25:19;11.55;;;4.60;;
11504;SDS011;5809;53.262;10.408;2023-07-13T04:27:47;8.45;;;4.57;;
11504;SDS011;5809;53.262;10.408;2023-07-13T04:30:14;4.68;;;4.15;;
11504;SDS011;5809;53.262;10.408;2023-07-13T04:32:41;6.65;;;3.92;;
11504;SDS011;5809;53.262;10.408;2023-07-13T04:35:09;7.30;;;4.18;;
11504;SDS011;5809;53.262;10.408;2023-07-13T04:37:36;6.90;;;4.10;;
11504;SDS011;5809;53.262;10.408;2023-07-13T04:40:03;6.20;;;4.20;;
11504;SDS011;5809;53.262;10.408;2023-07-13T04:42:31;8.55;;;4.00;;
11504;SDS011;5809;53.262;10.408;2023-07-13T04:44:59;4.10;;;3.80;;
11504;SDS011;5809;53.262;10.408;2023-07-13T04:47:29;4.93;;;4.20;;
11504;SDS011;5809;53.262;10.408;2023-07-13T04:49:56;9.05;;;4.43;;
11504;SDS011;5809;53.262;10.408;2023-07-13T04:52:25;7.47;;;4.25;;
11504;SDS011;5809;53.262;10.408;2023-07-13T04:54:52;6.63;;;4.05;;
11504;SDS011;5809;53.262;10.408;2023-07-13T04:57:18;8.70;;;4.65;;
11504;SDS011;5809;53.262;10.408;2023-07-13T04:59:46;6.18;;;4.85;;
11504;SDS011;5809;53.262;10.408;2023-07-13T05:02:13;6.68;;;4.05;;
11504;SDS011;5809;53.262;10.408;2023-07-13T05:04:39;8.35;;;4.45;;
11504;SDS011;5809;53.262;10.408;2023-07-13T05:07:07;5.57;;;4.05;;
11504;SDS011;5809;53.262;10.408;2023-07-13T05:09:35;7.22;;;4.30;;
11504;SDS011;5809;53.262;10.408;2023-07-13T05:12:02;5.55;;;3.85;;
11504;SDS011;5809;53.262;10.408;2023-07-13T05:14:30;8.05;;;3.50;;
11504;SDS011;5809;53.262;10.408;2023-07-13T05:16:56;7.57;;;3.72;;
11504;SDS011;5809;53.262;10.408;2023-07-13T05:19:24;12.30;;;3.55;;
11504;SDS011;5809;53.262;10.408;2023-07-13T05:21:51;7.75;;;3.33;;
11504;SDS011;5809;53.262;10.408;2023-07-13T05:24:18;5.25;;;3.08;;
11504;SDS011;5809;53.262;10.408;2023-07-13T05:26:46;8.50;;;3.00;;
11504;SDS011;5809;53.262;10.408;2023-07-13T05:29:13;7.32;;;3.00;;
11504;SDS011;5809;53.262;10.408;2023-07-13T05:31:40;7.60;;;2.83;;
11504;SDS011;5809;53.262;10.408;2023-07-13T05:34:08;4.18;;;2.50;;
11504;SDS011;5809;53.262;10.408;2023-07-13T05:36:35;7.10;;;3.00;;
11504;SDS011;5809;53.262;10.408;2023-07-13T05:39:02;9.93;;;2.83;;
11504;SDS011;5809;53.262;10.408;2023-07-13T05:41:29;9.52;;;2.78;;
11504;SDS011;5809;53.262;10.408;2023-07-13T05:43:58;7.97;;;3.08;;
11504;SDS011;5809;53.262;10.408;2023-07-13T05:46:25;8.23;;;3.33;;
11504;SDS011;5809;53.262;10.408;2023-07-13T05:48:52;10.75;;;2.50;;
11504;SDS011;5809;53.262;10.408;2023-07-13T05:51:19;5.85;;;2.72;;
11504;SDS011;5809;53.262;10.408;2023-07-13T05:53:45;4.85;;;2.20;;
11504;SDS011;5809;53.262;10.408;2023-07-13T05:56:13;8.90;;;2.53;;
11504;SDS011;5809;53.262;10.408;2023-07-13T05:58:39;7.28;;;2.58;;
11504;SDS011;5809;53.262;10.408;2023-07-13T06:01:09;8.98;;;2.72;;
11504;SDS011;5809;53.262;10.408;2023-07-13T06:03:37;6.45;;;2.70;;
11504;SDS011;5809;53.262;10.408;2023-07-13T06:06:04;7.43;;;2.35;;
11504;SDS011;5809;53.262;10.408;2023-07-13T06:08:32;7.22;;;2.45;;
11504;SDS011;5809;53.262;10.408;2023-07-13T06:11:02;7.72;;;2.50;;
11504;SDS011;5809;53.262;10.408;2023-07-13T06:13:30;5.60;;;2.67;;
11504;SDS011;5809;53.262;10.408;2023-07-13T06:15:58;7.80;;;2.35;;
11504;SDS011;5809;53.262;10.408;2023-07-13T06:18:26;8.05;;;2.75;;
11504;SDS011;5809;53.262;10.408;2023-07-13T06:20:53;8.48;;;2.80;;
11504;SDS011;5809;53.262;10.408;2023-07-13T06:23:20;9.93;;;3.08;;
11504;SDS011;5809;53.262;10.408;2023-07-13T06:25:48;8.50;;;2.60;;
11504;SDS011;5809;53.262;10.408;2023-07-13T06:28:14;14.05;;;3.38;;
11504;SDS011;5809;53.262;10.408;2023-07-13T06:30:42;10.05;;;2.85;;
11504;SDS011;5809;53.262;10.408;2023-07-13T06:33:08;12.45;;;3.42;;
11504;SDS011;5809;53.262;10.408;2023-07-13T06:35:37;8.90;;;2.55;;
11504;SDS011;5809;53.262;10.408;2023-07-13T06:38:04;6.65;;;2.28;;
11504;SDS011;5809;53.262;10.408;2023-07-13T06:40:31;8.38;;;2.60;;
11504;SDS011;5809;53.262;10.408;2023-07-13T06:42:58;8.23;;;2.85;;
11504;SDS011;5809;53.262;10.408;2023-07-13T06:45:25;11.82;;;3.03;;
11504;SDS011;5809;53.262;10.408;2023-07-13T06:47:52;8.13;;;2.95;;
11504;SDS011;5809;53.262;10.408;2023-07-13T06:50:19;11.73;;;2.85;;
11504;SDS011;5809;53.262;10.408;2023-07-13T06:52:47;13.88;;;2.83;;
11504;SDS011;5809;53.262;10.408;2023-07-13T06:55:14;11.27;;;2.90;;
11504;SDS011;5809;53.262;10.408;2023-07-13T06:57:41;10.38;;;2.72;;
11504;SDS011;5809;53.262;10.408;2023-07-13T07:00:08;9.80;;;3.05;;
11504;SDS011;5809;53.262;10.408;2023-07-13T07:02:36;7.18;;;2.45;;
11504;SDS011;5809;53.262;10.408;2023-07-13T07:05:04;9.38;;;2.67;;
11504;SDS011;5809;53.262;10.408;2023-07-13T07:07:31;10.00;;;3.20;;
11504;SDS011;5809;53.262;10.408;2023-07-13T07:09:59;9.65;;;2.58;;
11504;SDS011;5809;53.262;10.408;2023-07-13T07:12:26;11.18;;;2.75;;
11504;SDS011;5809;53.262;10.408;2023-07-13T07:14:54;8.30;;;2.75;;
11504;SDS011;5809;53.262;10.408;2023-07-13T07:17:21;10.07;;;2.90;;
11504;SDS011;5809;53.262;10.408;2023-07-13T07:19:48;12.98;;;2.65;;
11504;SDS011;5809;53.262;10.408;2023-07-13T07:22:15;10.55;;;2.33;;
11504;SDS011;5809;53.262;10.408;2023-07-13T07:24:42;11.27;;;3.17;;
11504;SDS011;5809;53.262;10.408;2023-07-13T07:27:10;11.15;;;2.83;;
11504;SDS011;5809;53.262;10.408;2023-07-13T07:29:37;9.38;;;2.60;;
11504;SDS011;5809;53.262;10.408;2023-07-13T07:32:04;7.60;;;2.50;;
11504;SDS011;5809;53.262;10.408;2023-07-13T07:34:32;9.55;;;2.42;;
11504;SDS011;5809;53.262;10.408;2023-07-13T07:36:59;11.40;;;3.15;;
11504;SDS011;5809;53.262;10.408;2023-07-13T07:39:27;12.75;;;3.10;;
11504;SDS011;5809;53.262;10.408;2023-07-13T07:41:54;8.25;;;3.03;;
11504;SDS011;5809;53.262;10.408;2023-07-13T07:44:22;7.65;;;2.28;;
11504;SDS011;5809;53.262;10.408;2023-07-13T07:46:49;7.72;;;2.35;;
11504;SDS011;5809;53.262;10.408;2023-07-13T07:49:16;8.45;;;2.30;;
11504;SDS011;5809;53.262;10.408;2023-07-13T07:51:43;7.05;;;2.42;;
11504;SDS011;5809;53.262;10.408;2023-07-13T07:54:10;9.52;;;2.60;;
11504;SDS011;5809;53.262;10.408;2023-07-13T07:56:38;8.57;;;2.70;;
11504;SDS011;5809;53.262;10.408;2023-07-13T07:59:04;8.88;;;2.45;;
11504;SDS011;5809;53.262;10.408;2023-07-13T08:01:33;7.20;;;2.33;;
11504;SDS011;5809;53.262;10.408;2023-07-13T08:04:00;9.63;;;2.72;;
11504;SDS011;5809;53.262;10.408;2023-07-13T08:06:27;8.82;;;2.60;;
11504;SDS011;5809;53.262;10.408;2023-07-13T08:08:54;8.63;;;2.60;;
11504;SDS011;5809;53.262;10.408;2023-07-13T08:11:21;7.57;;;2.35;;
11504;SDS011;5809;53.262;10.408;2023-07-13T08:13:49;9.13;;;2.53;;
11504;SDS011;5809;53.262;10.408;2023-07-13T08:16:16;8.00;;;2.30;;
11504;SDS011;5809;53.262;10.408;2023-07-13T08:18:44;7.30;;;2.25;;
11504;SDS011;5809;53.262;10.408;2023-07-13T08:21:11;10.52;;;2.83;;
11504;SDS011;5809;53.262;10.408;2023-07-13T08:23:38;9.23;;;2.58;;
11504;SDS011;5809;53.262;10.408;2023-07-13T08:26:05;6.97;;;2.58;;
11504;SDS011;5809;53.262;10.408;2023-07-13T08:28:33;9.98;;;2.47;;
11504;SDS011;5809;53.262;10.408;2023-07-13T08:31:00;9.10;;;2.67;;
11504;SDS011;5809;53.262;10.408;2023-07-13T08:33:28;8.02;;;2.40;;
11504;SDS011;5809;53.262;10.408;2023-07-13T08:35:56;7.03;;;2.53;;
11504;SDS011;5809;53.262;10.408;2023-07-13T08:38:23;9.23;;;2.38;;
11504;SDS011;5809;53.262;10.408;2023-07-13T08:40:51;9.70;;;2.30;;
11504;SDS011;5809;53.262;10.408;2023-07-13T08:43:22;9.77;;;2.60;;
11504;SDS011;5809;53.262;10.408;2023-07-13T08:45:53;6.70;;;2.13;;
11504;SDS011;5809;53.262;10.408;2023-07-13T08:48:26;10.07;;;2.72;;
11504;SDS011;5809;53.262;10.408;2023-07-13T08:50:57;11.27;;;2.50;;
11504;SDS011;5809;53.262;10.408;2023-07-13T08:53:30;7.40;;;2.55;;
11504;SDS011;5809;53.262;10.408;2023-07-13T08:56:05;6.68;;;2.45;;
11504;SDS011;5809;53.262;10.408;2023-07-13T08:58:45;6.68;;;2.08;;
11504;SDS011;5809;53.262;10.408;2023-07-13T09:01:17;8.32;;;2.38;;
11504;SDS011;5809;53.262;10.408;2023-07-13T09:03:46;8.98;;;2.03;;
11504;SDS011;5809;53.262;10.408;2023-07-13T09:06:21;6.55;;;2.00;;
11504;SDS011;5809;53.262;10.408;2023-07-13T09:08:54;6.10;;;2.35;;
11504;SDS011;5809;53.262;10.408;2023-07-13T09:11:31;7.70;;;2.10;;
11504;SDS011;5809;53.262;10.408;2023-07-13T09:14:23;5.97;;;1.77;;
11504;SDS011;5809;53.262;10.408;2023-07-13T09:17:00;8.65;;;1.70;;
11504;SDS011;5809;53.262;10.408;2023-07-13T09:19:30;7.65;;;2.13;;
11504;SDS011;5809;53.262;10.408;2023-07-13T09:22:02;7.80;;;2.20;;
11504;SDS011;5809;53.262;10.408;2023-07-13T09:24:35;6.60;;;2.08;;
11504;SDS011;5809;53.262;10.408;2023-07-13T09:27:09;4.85;;;1.88;;
11504;SDS011;5809;53.262;10.408;2023-07-13T09:29:42;5.57;;;1.90;;
11504;SDS011;5809;53.262;10.408;2023-07-13T09:32:14;5.70;;;1.83;;
11504;SDS011;5809;53.262;10.408;2023-07-13T09:34:49;4.95;;;1.88;;
11504;SDS011;5809;53.262;10.408;2023-07-13T09:37:18;5.55;;;1.92;;
11504;SDS011;5809;53.262;10.408;2023-07-13T09:39:47;5.53;;;1.60;;
11504;SDS011;5809;53.262;10.408;2023-07-13T09:42:16;8.23;;;2.22;;
11504;SDS011;5809;53.262;10.408;2023-07-13T09:44:51;6.82;;;2.08;;
11504;SDS011;5809;53.262;10.408;2023-07-13T09:47:20;7.30;;;2.10;;
11504;SDS011;5809;53.262;10.408;2023-07-13T09:49:53;3.00;;;1.50;;
11504;SDS011;5809;53.262;10.408;2023-07-13T09:52:24;5.57;;;1.80;;
11504;SDS011;5809;53.262;10.408;2023-07-13T09:54:53;6.68;;;1.75;;
11504;SDS011;5809;53.262;10.408;2023-07-13T09:57:24;6.53;;;2.20;;
11504;SDS011;5809;53.262;10.408;2023-07-13T09:59:53;5.55;;;1.70;;
11504;SDS011;5809;53.262;10.408;2023-07-13T10:02:24;5.00;;;1.80;;
11504;SDS011;5809;53.262;10.408;2023-07-13T10:04:55;4.20;;;1.88;;
11504;SDS011;5809;53.262;10.408;2023-07-13T10:07:24;4.72;;;1.60;;
11504;SDS011;5809;53.262;10.408;2023-07-13T10:09:52;5.07;;;1.63;;
11504;SDS011;5809;53.262;10.408;2023-07-13T10:12:20;6.68;;;2.10;;
11504;SDS011;5809;53.262;10.408;2023-07-13T10:14:50;6.30;;;2.10;;
11504;SDS011;5809;53.262;10.408;2023-07-13T10:17:21;5.13;;;1.98;;
11504;SDS011;5809;53.262;10.408;2023-07-13T10:19:57;3.92;;;1.80;;
11504;SDS011;5809;53.262;10.408;2023-07-13T10:22:31;5.88;;;1.85;;
11504;SDS011;5809;53.262;10.408;2023-07-13T10:25:11;7.07;;;1.83;;
11504;SDS011;5809;53.262;10.408;2023-07-13T10:27:43;4.88;;;1.70;;
11504;SDS011;5809;53.262;10.408;2023-07-13T10:30:12;6.18;;;1.83;;
11504;SDS011;5809;53.262;10.408;2023-07-13T10:32:43;4.68;;;1.95;;
11504;SDS011;5809;53.262;10.408;2023-07-13T10:35:12;7.50;;;2.00;;
11504;SDS011;5809;53.262;10.408;2023-07-13T10:37:43;4.53;;;1.60;;
11504;SDS011;5809;53.262;10.408;2023-07-13T10:40:14;4.00;;;1.63;;
11504;SDS011;5809;53.262;10.408;2023-07-13T10:42:46;4.85;;;1.88;;
11504;SDS011;5809;53.262;10.408;2023-07-13T10:45:17;9.05;;;7.13;;
11504;SDS011;5809;53.262;10.408;2023-07-13T10:47:46;6.32;;;2.65;;
11504;SDS011;5809;53.262;10.408;2023-07-13T10:50:17;4.22;;;2.00;;
11504;SDS011;5809;53.262;10.408;2023-07-13T10:52:49;5.72;;;1.90;;
11504;SDS011;5809;53.262;10.408;2023-07-13T10:55:35;7.97;;;2.17;;
11504;SDS011;5809;53.262;10.408;2023-07-13T10:58:11;5.38;;;2.22;;
11504;SDS011;5809;53.262;10.408;2023-07-13T11:00:44;6.43;;;2.00;;
11504;SDS011;5809;53.262;10.408;2023-07-13T11:03:14;3.50;;;1.80;;
11504;SDS011;5809;53.262;10.408;2023-07-13T11:05:43;5.70;;;2.22;;
11504;SDS011;5809;53.262;10.408;2023-07-13T11:08:18;2.72;;;1.42;;
11504;SDS011;5809;53.262;10.408;2023-07-13T11:10:51;7.43;;;2.13;;
11504;SDS011;5809;53.262;10.408;2023-07-13T11:13:37;3.72;;;1.92;;
11504;SDS011;5809;53.262;10.408;2023-07-13T11:16:33;3.88;;;1.70;;
11504;SDS011;5809;53.262;10.408;2023-07-13T11:19:23;5.32;;;1.63;;
11504;SDS011;5809;53.262;10.408;2023-07-13T11:22:01;4.13;;;1.75;;
11504;SDS011;5809;53.262;10.408;2023-07-13T11:24:50;4.55;;;1.92;;
11504;SDS011;5809;53.262;10.408;2023-07-13T11:27:25;4.53;;;1.83;;
11504;SDS011;5809;53.262;10.408;2023-07-13T11:30:06;5.30;;;1.90;;
11504;SDS011;5809;53.262;10.408;2023-07-13T11:32:50;3.63;;;1.92;;
11504;SDS011;5809;53.262;10.408;2023-07-13T11:35:32;5.00;;;1.90;;
11504;SDS011;5809;53.262;10.408;2023-07-13T11:38:03;4.47;;;1.90;;
11504;SDS011;5809;53.262;10.408;2023-07-13T11:40:40;4.03;;;1.80;;
11504;SDS011;5809;53.262;10.408;2023-07-13T11:43:08;4.43;;;1.90;;
11504;SDS011;5809;53.262;10.408;2023-07-13T11:45:35;5.22;;;1.77;;
11504;SDS011;5809;53.262;10.408;2023-07-13T11:48:02;4.03;;;2.00;;
11504;SDS011;5809;53.262;10.408;2023-07-13T11:50:29;3.50;;;2.00;;
11504;SDS011;5809;53.262;10.408;2023-07-13T11:52:57;4.10;;;2.08;;
11504;SDS011;5809;53.262;10.408;2023-07-13T11:55:25;3.55;;;2.00;;
11504;SDS011;5809;53.262;10.408;2023-07-13T11:57:56;3.88;;;2.00;;
11504;SDS011;5809;53.262;10.408;2023-07-13T12:00:26;4.32;;;1.70;;
11504;SDS011;5809;53.262;10.408;2023-07-13T12:02:57;4.68;;;1.90;;
11504;SDS011;5809;53.262;10.408;2023-07-13T12:05:27;4.65;;;2.35;;
11504;SDS011;5809;53.262;10.408;2023-07-13T12:07:56;4.97;;;2.10;;
11504;SDS011;5809;53.262;10.408;2023-07-13T12:10:24;5.93;;;2.40;;
11504;SDS011;5809;53.262;10.408;2023-07-13T12:12:55;6.60;;;2.25;;
11504;SDS011;5809;53.262;10.408;2023-07-13T12:15:23;8.45;;;2.47;;
11504;SDS011;5809;53.262;10.408;2023-07-13T12:17:51;4.40;;;1.70;;
11504;SDS011;5809;53.262;10.408;2023-07-13T12:20:20;4.35;;;3.95;;
11504;SDS011;5809;53.262;10.408;2023-07-13T12:22:49;8.50;;;2.30;;
11504;SDS011;5809;53.262;10.408;2023-07-13T12:25:17;3.03;;;1.70;;
11504;SDS011;5809;53.262;10.408;2023-07-13T12:27:46;2.85;;;1.77;;
11504;SDS011;5809;53.262;10.408;2023-07-13T12:30:26;2.95;;;1.75;;
11504;SDS011;5809;53.262;10.408;2023-07-13T12:32:56;3.88;;;2.13;;
11504;SDS011;5809;53.262;10.408;2023-07-13T12:35:23;4.50;;;1.98;;
11504;SDS011;5809;53.262;10.408;2023-07-13T12:37:54;4.25;;;1.98;;
11504;SDS011;5809;53.262;10.408;2023-07-13T12:40:25;4.53;;;2.38;;
11504;SDS011;5809;53.262;10.408;2023-07-13T12:42:53;5.22;;;2.00;;
11504;SDS011;5809;53.262;10.408;2023-07-13T12:45:21;4.03;;;2.00;;
11504;SDS011;5809;53.262;10.408;2023-07-13T12:47:53;4.38;;;2.08;;
11504;SDS011;5809;53.262;10.408;2023-07-13T12:50:22;4.53;;;2.13;;
11504;SDS011;5809;53.262;10.408;2023-07-13T12:52:50;4.68;;;2.13;;
11504;SDS011;5809;53.262;10.408;2023-07-13T12:55:18;4.63;;;2.10;;
11504;SDS011;5809;53.262;10.408;2023-07-13T12:57:48;3.85;;;2.00;;
11504;SDS011;5809;53.262;10.408;2023-07-13T13:00:21;5.30;;;2.58;;
11504;SDS011;5809;53.262;10.408;2023-07-13T13:02:52;9.73;;;4.03;;
11504;SDS011;5809;53.262;10.408;2023-07-13T13:05:20;9.07;;;3.28;;
11504;SDS011;5809;53.262;10.408;2023-07-13T13:07:48;4.05;;;2.90;;
11504;SDS011;5809;53.262;10.408;2023-07-13T13:10:15;5.68;;;3.38;;
11504;SDS011;5809;53.262;10.408;2023-07-13T13:12:42;8.13;;;3.83;;
11504;SDS011;5809;53.262;10.408;2023-07-13T13:15:09;6.35;;;3.58;;
11504;SDS011;5809;53.262;10.408;2023-07-13T13:17:37;5.93;;;3.78;;
11504;SDS011;5809;53.262;10.408;2023-07-13T13:20:11;6.55;;;3.70;;
11504;SDS011;5809;53.262;10.408;2023-07-13T13:22:41;7.20;;;3.42;;
11504;SDS011;5809;53.262;10.408;2023-07-13T13:25:09;8.10;;;4.38;;
11504;SDS011;5809;53.262;10.408;2023-07-13T13:27:36;6.28;;;5.35;;
11504;SDS011;5809;53.262;10.408;2023-07-13T13:30:08;7.15;;;4.40;;
11504;SDS011;5809;53.262;10.408;2023-07-13T13:32:37;13.65;;;5.38;;
11504;SDS011;5809;53.262;10.408;2023-07-13T13:35:08;7.63;;;3.85;;
11504;SDS011;5809;53.262;10.408;2023-07-13T13:37:39;5.18;;;4.10;;
11504;SDS011;5809;53.262;10.408;2023-07-13T13:40:13;7.88;;;4.25;;
11504;SDS011;5809;53.262;10.408;2023-07-13T13:42:41;6.07;;;4.03;;
11504;SDS011;5809;53.262;10.408;2023-07-13T13:45:08;5.20;;;4.15;;
11504;SDS011;5809;53.262;10.408;2023-07-13T13:47:37;5.68;;;4.13;;
11504;SDS011;5809;53.262;10.408;2023-07-13T13:50:12;4.72;;;4.10;;
11504;SDS011;5809;53.262;10.408;2023-07-13T13:52:40;6.43;;;3.58;;
11504;SDS011;5809;53.262;10.408;2023-07-13T13:55:11;4.38;;;3.67;;
11504;SDS011;5809;53.262;10.408;2023-07-13T13:57:39;4.53;;;3.35;;
11504;SDS011;5809;53.262;10.408;2023-07-13T14:00:07;5.10;;;3.63;;
11504;SDS011;5809;53.262;10.408;2023-07-13T14:02:36;7.18;;;4.30;;
11504;SDS011;5809;53.262;10.408;2023-07-13T14:05:05;4.25;;;3.75;;
11504;SDS011;5809;53.262;10.408;2023-07-13T14:07:35;8.30;;;4.43;;
11504;SDS011;5809;53.262;10.408;2023-07-13T14:10:02;6.20;;;4.38;;
11504;SDS011;5809;53.262;10.408;2023-07-13T14:12:35;7.65;;;3.95;;
11504;SDS011;5809;53.262;10.408;2023-07-13T14:15:03;4.97;;;3.75;;
11504;SDS011;5809;53.262;10.408;2023-07-13T14:17:30;5.55;;;3.90;;
11504;SDS011;5809;53.262;10.408;2023-07-13T14:19:58;8.43;;;3.67;;
11504;SDS011;5809;53.262;10.408;2023-07-13T14:22:26;4.43;;;3.30;;
11504;SDS011;5809;53.262;10.408;2023-07-13T14:24:55;4.07;;;2.90;;
11504;SDS011;5809;53.262;10.408;2023-07-13T14:27:24;5.18;;;3.30;;
11504;SDS011;5809;53.262;10.408;2023-07-13T14:29:51;5.07;;;3.30;;
11504;SDS011;5809;53.262;10.408;2023-07-13T14:32:18;4.50;;;3.05;;
11504;SDS011;5809;53.262;10.408;2023-07-13T14:34:45;6.47;;;3.15;;
11504;SDS011;5809;53.262;10.408;2023-07-13T14:37:13;5.55;;;3.05;;
11504;SDS011;5809;53.262;10.408;2023-07-13T14:39:41;4.55;;;2.90;;
11504;SDS011;5809;53.262;10.408;2023-07-13T14:42:10;6.28;;;3.13;;
11504;SDS011;5809;53.262;10.408;2023-07-13T14:44:38;11.98;;;8.85;;
11504;SDS011;5809;53.262;10.408;2023-07-13T14:47:05;4.22;;;3.30;;
11504;SDS011;5809;53.262;10.408;2023-07-13T14:49:34;5.60;;;4.40;;
11504;SDS011;5809;53.262;10.408;2023-07-13T14:52:12;5.90;;;4.65;;
11504;SDS011;5809;53.262;10.408;2023-07-13T14:54:40;5.63;;;3.40;;
11504;SDS011;5809;53.262;10.408;2023-07-13T14:57:13;5.32;;;3.67;;
11504;SDS011;5809;53.262;10.408;2023-07-13T14:59:41;7.22;;;3.53;;
11504;SDS011;5809;53.262;10.408;2023-07-13T15:02:16;6.15;;;2.90;;